Date,TemperatureHighF,TemperatureAvgF,TemperatureLowF,DewpointHighF,DewpointAvgF,DewpointLowF,HumidityHigh,HumidityAvg,HumidityLow,PressureMaxIn,PressureMinIn,WindSpeedMaxMPH,WindSpeedAvgMPH,GustSpeedMaxMPH,PrecipitationSumIn
2012-1-1,84.0,59.0,43.7,55.4,49.2,37.6,99,75,25,30.17,30.05,5,1,5,0.01
2012-1-2,87.1,60.6,48.2,57.2,49.4,33.1,98,73,16,30.21,30.07,7,2,7,0.01
2012-1-3,79.7,62.2,48.0,50.5,44.5,30.9,93,58,20,30.19,30.09,4,1,4,0.00
2012-1-4,91.9,65.0,46.9,91.9,45.8,19.8,89,51,10,30.23,30.10,6,1,6,0.00
2012-1-5,90.5,65.9,51.1,90.5,43.5,19.0,77,37,10,30.14,29.95,5,1,5,0.00
2012-1-6,74.5,59.1,48.7,55.0,46.9,34.2,95,67,27,30.02,29.91,5,1,5,0.00
2012-1-7,67.1,56.0,49.3,53.8,50.7,47.3,97,83,58,30.04,29.93,8,2,8,0.00
2012-1-8,80.1,60.3,47.8,80.1,40.4,9.9,95,43,10,30.14,30.02,8,1,8,0.01
2012-1-9,84.0,60.9,45.1,84.0,44.3,11.1,69,39,10,30.17,30.07,5,1,5,0.00
2012-1-10,74.8,58.8,45.9,49.6,41.9,31.5,89,56,28,30.16,30.02,4,1,4,0.00
2012-1-11,67.5,56.3,48.0,53.2,44.8,36.7,91,67,34,30.05,29.94,4,1,4,0.00
2012-1-12,79.7,60.4,51.4,55.4,47.3,27.3,88,66,15,30.03,29.92,5,1,5,0.00
2012-1-13,86.4,62.2,44.2,86.4,43.4,10.2,61,26,10,30.14,30.02,5,1,5,0.00
2012-1-14,71.8,54.5,45.3,71.8,34.1,6.8,78,40,10,30.16,30.06,4,1,4,0.00
2012-1-15,68.4,54.9,46.8,55.4,42.2,27.9,90,64,39,30.13,30.03,6,2,6,0.11
2012-1-16,65.7,53.4,46.9,51.3,44.3,39.4,92,73,49,30.22,30.06,8,2,8,0.00
2012-1-17,64.9,52.5,43.3,44.4,40.7,36.9,84,67,38,30.30,30.21,10,2,10,0.00
2012-1-18,69.3,53.2,40.5,47.1,42.8,37.6,93,71,32,30.31,30.15,7,1,7,0.00
2012-1-19,67.5,53.7,42.3,52.0,45.1,39.7,93,75,43,30.16,30.00,7,1,7,0.00
2012-1-20,66.2,56.1,48.0,51.4,48.9,45.7,93,78,55,30.12,30.02,7,2,7,0.00
2012-1-21,68.7,57.6,48.6,63.0,49.7,39.2,98,77,45,30.08,29.96,17,4,17,0.45
2012-1-22,65.8,54.4,46.8,52.9,47.7,42.8,88,79,61,30.17,30.07,7,2,7,0.00
2012-1-23,58.1,52.7,48.4,54.0,50.2,46.9,96,91,85,30.12,29.86,11,2,11,0.70
2012-1-24,77.4,57.6,44.2,56.1,45.7,34.9,99,70,23,30.19,29.99,7,1,7,0.02
2012-1-25,89.1,65.2,47.8,88.7,42.5,21.4,80,49,10,30.19,30.04,8,1,8,0.00
2012-1-26,85.5,64.7,48.9,56.1,48.0,32.5,93,64,16,30.09,29.93,8,2,8,0.00
2012-1-27,85.8,65.5,49.8,82.6,46.2,9.3,91,46,10,30.07,29.91,11,2,11,0.00
2012-1-28,87.6,67.4,52.9,87.4,47.6,0.3,34,9,10,30.18,30.06,12,2,12,0.00
2012-1-29,84.9,63.9,47.8,84.7,40.2,9.7,55,19,11,30.19,30.01,7,2,7,0.00
2012-1-30,69.8,56.7,46.2,53.4,43.1,22.5,91,63,20,30.03,29.93,6,2,6,0.00
2012-1-31,67.5,57.8,49.6,52.2,48.9,43.7,90,74,46,30.14,29.96,8,2,8,0.00
2012-2-1,69.6,57.5,47.8,54.0,48.8,43.7,92,74,49,30.18,30.01,8,2,8,0.00
2012-2-2,68.9,57.9,49.1,53.8,49.7,46.0,92,76,51,30.06,29.87,7,2,7,0.00
2012-2-3,76.3,60.9,48.4,76.1,40.2,10.8,89,35,10,30.00,29.93,14,2,14,0.00
2012-2-4,77.5,61.7,49.3,77.5,37.7,7.0,33,18,10,30.04,29.94,7,2,7,0.00
2012-2-5,77.7,62.6,50.7,77.5,34.9,10.6,75,29,10,30.03,29.91,7,2,8,0.00
2012-2-6,74.5,60.2,48.6,47.5,35.9,16.3,86,46,12,30.00,29.87,4,1,4,0.00
2012-2-7,63.0,58.5,54.9,55.2,49.9,45.1,89,73,54,29.97,29.85,11,2,11,0.01
2012-2-8,78.6,63.8,49.1,52.0,44.2,34.0,85,54,22,30.13,29.96,6,1,6,0.00
2012-2-9,85.8,66.6,52.2,48.7,38.5,21.0,75,41,11,30.16,30.05,10,1,10,0.00
2012-2-10,71.1,60.3,50.5,56.3,51.2,44.8,90,73,49,30.15,30.02,5,1,5,0.00
2012-2-11,68.9,59.7,55.0,57.2,50.4,46.0,91,73,47,30.05,29.91,11,2,11,0.00
2012-2-12,67.3,57.6,49.6,52.2,49.1,45.3,93,75,48,30.01,29.92,9,2,9,0.00
2012-2-13,64.2,56.2,51.8,52.3,46.3,36.5,87,70,41,30.01,29.87,21,5,21,0.00
2012-2-14,63.7,53.3,42.8,44.4,39.2,35.4,85,61,38,30.07,29.87,8,2,9,0.00
2012-2-15,63.5,50.8,43.3,50.4,42.9,39.9,88,75,53,30.07,29.86,13,2,13,0.20
2012-2-16,73.8,57.2,41.4,48.2,33.2,12.7,92,51,10,30.09,29.95,11,2,11,0.00
2012-2-17,74.7,58.3,44.8,50.7,37.9,12.9,90,53,11,30.14,30.05,7,1,7,0.00
2012-2-18,63.9,55.4,46.8,50.4,47.9,43.0,93,77,58,30.12,30.00,8,2,9,0.00
2012-2-19,64.9,55.2,45.9,50.0,45.6,42.3,88,71,50,30.09,29.96,8,1,8,0.00
2012-2-20,67.8,54.8,47.7,49.3,46.8,44.6,90,76,49,30.12,30.03,6,2,6,0.00
2012-2-21,78.6,60.5,45.3,50.0,40.6,15.6,94,57,11,30.12,30.04,10,2,10,0.00
2012-2-22,80.6,63.1,49.3,51.8,44.9,19.0,84,57,11,30.11,29.88,8,1,8,0.00
2012-2-23,76.1,61.6,50.2,55.6,49.2,39.6,93,68,29,29.93,29.76,7,2,7,0.00
2012-2-24,67.3,58.2,52.9,54.9,52.5,50.0,94,82,62,30.13,29.92,8,2,8,0.00
2012-2-25,68.0,58.6,51.6,51.4,49.4,47.3,87,73,51,30.14,29.93,9,2,9,0.00
2012-2-26,65.7,57.6,52.2,49.6,47.9,45.0,85,71,51,29.94,29.83,8,2,8,0.00
2012-2-27,61.5,53.6,47.8,48.4,43.2,33.6,83,68,47,29.93,29.81,17,5,17,0.14
2012-2-28,61.7,51.4,41.2,40.5,37.3,32.9,78,60,40,30.27,29.93,17,2,17,0.00
2012-2-29,65.8,54.3,43.0,49.8,43.0,35.1,85,68,34,30.27,30.15,15,4,15,0.00
2012-3-1,63.0,55.8,47.5,49.6,45.9,43.2,88,71,51,30.16,30.02,11,2,11,0.00
2012-3-2,79.3,60.0,46.6,76.5,37.0,11.7,85,47,10,30.23,30.05,10,2,10,0.00
2012-3-3,84.6,64.1,46.4,84.4,47.5,10.4,59,27,10,30.24,30.11,9,2,10,0.00
2012-3-4,92.7,70.3,53.2,92.5,46.9,14.2,48,20,10,30.13,29.91,8,2,8,0.00
2012-3-5,78.1,62.6,52.9,54.3,44.0,32.9,90,55,20,29.99,29.88,6,1,6,0.00
2012-3-6,65.7,56.0,48.0,51.1,45.7,37.6,90,69,44,29.93,29.73,12,3,12,0.00
2012-3-7,67.1,55.0,44.6,67.1,36.3,2.5,75,29,10,30.12,29.84,13,2,13,0.00
2012-3-8,82.0,60.0,41.4,82.0,43.1,8.6,78,36,10,30.24,30.12,11,2,11,0.00
2012-3-9,90.0,68.3,52.0,90.0,46.7,10.2,44,16,10,30.22,29.98,12,3,12,0.00
2012-3-10,72.7,59.6,49.5,54.3,44.9,32.4,90,61,35,30.00,29.91,8,2,8,0.00
2012-3-11,64.6,57.3,52.3,51.8,47.2,44.4,91,70,49,30.06,29.96,9,2,9,0.00
2012-3-12,66.6,57.7,52.0,48.9,46.8,45.0,86,68,51,30.05,29.94,8,2,8,0.00
2012-3-13,66.4,57.2,50.7,49.6,47.6,45.7,88,71,50,30.07,30.00,10,2,10,0.00
2012-3-14,70.7,57.7,48.6,51.1,48.6,45.5,90,73,43,30.15,30.05,11,2,11,0.00
2012-3-15,65.8,58.0,54.3,52.7,51.0,49.6,90,78,60,30.15,30.03,8,2,8,0.00
2012-3-16,65.5,58.1,54.3,54.9,52.9,42.3,93,83,64,30.07,29.91,7,2,7,0.01
2012-3-17,57.7,54.2,46.6,55.6,48.3,36.1,97,81,53,29.92,29.69,20,5,20,0.37
2012-3-18,60.1,51.3,45.0,43.5,38.8,31.5,93,65,39,29.93,29.68,22,8,24,0.25
2012-3-19,63.1,54.3,46.0,41.5,36.9,30.6,77,53,34,30.03,29.88,16,3,16,0.00
2012-3-20,71.6,57.1,44.6,44.2,39.1,31.1,83,55,25,30.12,30.02,8,2,8,0.00
2012-3-21,81.1,61.9,46.6,47.3,40.2,25.2,87,52,14,30.10,29.89,8,2,8,0.00
2012-3-22,69.1,58.0,50.5,53.2,50.1,45.7,96,76,47,29.97,29.84,8,2,8,0.00
2012-3-23,66.7,57.0,52.7,54.0,50.6,48.4,92,80,54,30.04,29.95,7,2,7,0.01
2012-3-24,66.0,57.9,51.6,51.1,49.4,46.6,91,74,53,29.97,29.88,10,2,10,0.00
2012-3-25,59.7,53.4,49.6,54.0,48.8,46.0,94,85,68,29.93,29.79,16,4,17,0.41
2012-3-26,65.8,55.9,49.1,52.0,48.2,43.0,98,78,47,30.12,29.93,8,2,8,0.12
2012-3-27,71.8,57.3,45.7,50.0,44.7,36.7,95,67,30,30.08,30.01,11,2,11,0.00
2012-3-28,72.9,59.2,47.5,54.5,49.4,44.1,91,72,45,30.09,29.98,15,3,15,0.00
2012-3-29,72.0,60.1,54.7,55.0,52.7,51.3,92,78,49,30.06,29.94,8,2,8,0.00
2012-3-30,69.6,58.6,53.8,53.2,52.0,48.7,90,79,59,30.01,29.92,7,2,7,0.00
2012-3-31,65.7,57.6,53.4,54.1,51.2,46.0,92,80,58,30.04,29.95,15,3,15,0.04
2012-4-1,74.3,61.2,48.4,46.9,37.7,24.1,82,47,16,30.01,29.93,15,5,16,0.00
2012-4-2,81.9,64.7,47.3,81.9,34.2,11.8,68,34,10,30.01,29.85,13,2,13,0.00
2012-4-3,77.0,64.0,51.3,50.4,45.6,33.8,91,56,26,29.99,29.88,8,2,8,0.00
2012-4-4,75.6,62.3,52.9,54.7,49.2,40.8,92,66,29,29.96,29.84,10,2,10,0.00
2012-4-5,72.5,60.1,53.1,52.5,46.3,27.5,89,64,22,29.99,29.84,11,2,11,0.00
2012-4-6,80.4,61.4,45.9,80.2,40.2,15.6,86,50,10,30.07,29.94,8,2,8,0.00
2012-4-7,88.9,67.3,46.8,88.9,54.2,12.2,75,31,10,30.01,29.92,7,2,10,0.00
2012-4-8,86.0,65.7,48.0,85.8,47.1,17.6,80,41,10,30.01,29.94,8,2,8,0.00
2012-4-9,81.3,63.2,47.8,81.1,46.9,16.5,84,51,10,30.00,29.88,8,2,8,0.00
2012-4-10,67.8,58.3,49.8,52.3,48.1,44.8,91,71,47,29.96,29.85,9,2,11,0.01
2012-4-11,70.3,59.3,54.0,54.3,50.7,46.2,97,75,45,30.10,29.83,12,4,12,0.46
2012-4-12,68.2,58.8,48.9,52.7,48.4,45.3,92,70,47,30.17,30.04,10,2,10,0.00
2012-4-13,59.7,55.0,51.4,54.7,48.8,40.8,94,80,60,30.05,29.74,21,6,21,0.45
2012-4-14,69.8,58.4,44.1,48.7,41.2,33.3,85,57,27,30.06,29.77,17,5,17,0.00
2012-4-15,72.9,60.0,50.5,51.3,47.2,41.7,89,65,36,30.15,30.06,9,2,9,0.00
2012-4-16,84.4,65.2,49.5,53.1,47.9,43.9,89,58,25,30.13,30.01,10,2,10,0.00
2012-4-17,87.3,67.7,52.0,59.2,50.0,33.8,95,59,16,30.04,29.91,8,2,8,0.00
2012-4-18,75.6,63.9,53.8,56.5,53.6,49.3,92,72,43,29.98,29.88,8,2,8,0.00
2012-4-19,72.0,61.5,55.9,56.7,55.3,54.1,94,81,56,29.97,29.87,7,3,8,0.00
2012-4-20,84.2,65.4,57.6,59.0,56.5,49.1,95,76,40,29.95,29.85,8,2,8,0.00
2012-4-21,76.5,63.2,57.9,59.4,57.1,55.2,96,82,52,29.95,29.85,8,2,9,0.00
2012-4-22,70.2,61.4,58.1,57.2,55.9,54.3,93,83,60,29.96,29.90,8,2,8,0.00
2012-4-23,69.6,61.4,56.1,55.8,53.8,50.7,94,77,52,30.04,29.95,7,2,7,0.00
2012-4-24,78.6,65.1,52.9,58.1,50.9,47.3,92,63,38,30.04,29.93,13,2,13,0.00
2012-4-25,87.1,66.1,59.0,58.5,54.9,46.9,96,70,26,30.00,29.74,17,2,17,0.24
2012-4-26,72.1,64.0,58.5,59.4,56.3,52.0,97,78,55,30.05,29.82,11,3,11,0.14
2012-4-27,77.4,64.9,53.4,55.4,50.8,45.3,91,63,37,30.06,29.91,11,2,11,0.00
2012-4-28,84.6,67.9,54.1,58.3,53.3,41.2,93,65,23,29.92,29.72,8,2,8,0.00
2012-4-29,72.0,64.2,58.6,57.4,56.0,54.7,89,76,57,29.92,29.78,8,3,8,0.00
2012-4-30,72.5,64.4,61.0,57.4,55.9,54.3,84,74,57,29.96,29.89,8,2,8,0.00
2012-5-1,68.0,62.6,58.8,57.9,55.3,53.1,93,77,62,29.93,29.86,6,2,6,0.00
2012-5-2,72.1,63.3,58.3,55.8,54.1,52.3,89,73,52,29.95,29.86,8,2,8,0.00
2012-5-3,74.7,64.4,56.7,54.7,52.8,50.2,82,67,46,30.03,29.94,9,2,9,0.00
2012-5-4,74.8,62.9,52.7,58.1,53.1,50.0,92,72,50,30.07,29.98,8,2,8,0.00
2012-5-5,73.6,63.9,55.0,57.4,55.0,52.0,92,74,51,29.99,29.90,8,2,8,0.00
2012-5-6,71.1,63.9,59.2,57.4,55.6,53.2,90,75,55,29.97,29.90,8,3,8,0.00
2012-5-7,81.0,66.1,58.6,58.6,55.9,52.9,91,72,38,29.96,29.84,9,2,9,0.00
2012-5-8,84.4,68.1,59.0,59.4,56.0,48.0,91,69,29,29.91,29.77,9,2,9,0.00
2012-5-9,80.6,66.5,56.8,62.2,58.3,54.5,96,77,42,29.87,29.77,9,2,9,0.00
2012-5-10,71.2,64.1,60.3,58.1,55.9,52.3,88,75,58,29.90,29.84,10,4,10,0.00
2012-5-11,74.5,65.1,59.2,55.8,52.8,50.7,79,65,46,30.00,29.87,8,2,8,0.00
2012-5-12,80.4,66.9,58.6,57.2,55.0,53.1,86,67,43,30.06,29.96,11,2,11,0.00
2012-5-13,79.3,65.6,58.6,57.4,54.6,51.8,85,70,44,30.06,29.96,11,2,11,0.00
2012-5-14,82.4,67.7,54.7,59.0,52.6,45.5,92,62,29,30.02,29.90,15,2,15,0.00
2012-5-15,84.2,66.9,53.2,56.5,52.7,45.1,90,63,27,29.93,29.81,8,2,8,0.00
2012-5-16,88.3,70.3,58.6,59.9,56.4,52.2,93,65,32,29.88,29.74,9,2,9,0.00
2012-5-17,73.2,65.2,60.4,59.7,57.9,55.9,91,78,60,29.85,29.77,10,3,10,0.00
2012-5-18,80.2,66.1,58.5,57.4,54.2,47.8,90,68,44,29.88,29.80,10,2,10,0.00
2012-5-19,81.5,66.5,59.9,57.9,56.2,54.7,87,71,43,29.91,29.82,8,2,8,0.00
2012-5-20,85.8,68.9,60.3,60.8,58.1,56.1,89,71,40,29.91,29.80,8,2,8,0.00
2012-5-21,87.1,69.1,59.9,61.9,58.3,54.0,95,72,40,29.92,29.83,9,2,9,0.00
2012-5-22,74.5,66.1,60.4,60.8,59.0,57.2,91,79,59,29.90,29.78,10,3,10,0.00
2012-5-23,74.8,67.1,61.7,60.3,57.9,56.1,88,73,55,29.80,29.66,11,4,11,0.00
2012-5-24,73.0,65.6,61.5,58.8,55.8,54.3,85,72,53,29.72,29.63,11,4,11,0.00
2012-5-25,73.4,64.0,55.8,60.3,51.8,41.9,95,67,35,29.79,29.66,16,5,16,0.04
2012-5-26,74.1,62.6,51.1,51.6,47.7,37.0,82,60,28,30.02,29.78,11,3,11,0.00
2012-5-27,80.8,65.7,52.9,55.4,51.0,45.3,88,62,32,30.03,29.90,12,2,12,0.00
2012-5-28,87.6,69.7,55.9,61.0,54.7,38.5,94,64,20,29.94,29.83,7,2,7,0.00
2012-5-29,83.8,69.1,60.1,60.8,56.7,50.2,91,67,37,29.96,29.88,8,2,8,0.00
2012-5-30,75.7,66.1,58.5,58.1,55.3,50.4,85,69,47,29.99,29.91,8,2,8,0.00
2012-5-31,84.4,69.3,59.4,59.5,57.4,54.7,91,69,39,29.95,29.75,7,2,7,0.00
2012-6-1,84.2,64.6,61.7,59.7,58.2,51.6,91,81,61,29.84,29.78,8,3,8,0.00
2012-6-2,74.5,65.5,61.2,58.8,57.6,56.1,88,76,56,29.87,29.81,8,3,8,0.00
2012-6-3,73.2,65.3,61.9,58.5,56.7,55.4,82,74,58,29.92,29.81,8,3,8,0.00
2012-6-4,75.0,65.3,61.9,59.0,56.9,55.6,85,75,56,29.97,29.88,11,2,11,0.00
2012-6-5,80.4,68.5,59.9,59.0,52.5,41.0,86,60,27,29.95,29.85,14,3,14,0.00
2012-6-6,85.8,69.4,55.6,59.0,51.5,24.8,90,60,12,29.87,29.73,11,2,11,0.00
2012-6-7,77.5,69.1,59.7,62.1,58.5,53.2,90,71,48,29.84,29.78,8,3,8,0.00
2012-6-8,73.2,66.9,61.7,60.3,58.3,56.3,90,75,57,29.86,29.78,10,3,10,0.00
2012-6-9,73.6,65.1,61.2,57.2,55.9,54.5,85,73,53,29.84,29.76,8,3,8,0.00
2012-6-10,74.8,65.6,60.8,57.2,55.6,54.5,82,71,51,29.92,29.79,9,3,9,0.00
2012-6-11,79.3,67.2,59.2,59.0,56.9,54.7,86,71,48,29.97,29.87,8,2,8,0.00
2012-6-12,84.0,69.0,61.5,60.1,57.6,55.9,86,69,41,29.96,29.83,9,2,9,0.00
2012-6-13,72.7,66.1,61.5,59.7,57.9,56.5,87,75,58,29.87,29.75,9,3,9,0.00
2012-6-14,73.9,65.7,60.8,58.5,56.6,55.0,85,73,53,29.83,29.78,10,4,10,0.00
2012-6-15,83.5,64.9,61.0,63.1,56.3,48.6,86,75,53,29.86,29.78,9,3,9,0.00
2012-6-16,80.6,68.3,62.1,60.6,58.6,56.5,86,72,48,29.88,29.76,11,2,11,0.00
2012-6-17,86.0,69.4,59.4,63.0,59.8,57.0,94,74,42,29.90,29.81,10,2,10,0.00
2012-6-18,82.6,68.8,62.1,61.9,58.9,56.3,91,73,44,29.91,29.79,9,2,9,0.00
2012-6-19,80.1,66.9,60.4,58.5,57.2,55.6,86,72,46,29.89,29.78,10,2,10,0.00
2012-6-20,77.9,67.4,60.1,58.8,57.2,55.6,87,71,48,29.84,29.76,8,2,8,0.00
2012-6-21,80.8,67.4,60.4,59.9,58.2,56.1,89,74,47,29.90,29.82,9,2,9,0.00
2012-6-22,81.9,68.1,59.5,58.3,56.4,51.4,88,68,43,29.90,29.77,8,2,8,0.00
2012-6-23,83.7,68.9,59.2,59.9,56.9,53.1,90,68,39,29.83,29.75,8,2,8,0.00
2012-6-24,86.9,70.4,57.9,59.7,55.1,47.8,91,61,30,29.95,29.83,8,2,8,0.00
2012-6-25,84.2,69.3,56.8,60.6,53.2,30.2,94,61,15,29.99,29.87,10,2,10,0.00
2012-6-26,87.3,71.1,57.2,58.8,52.9,42.1,88,57,26,29.91,29.75,8,2,8,0.00
2012-6-27,88.0,72.3,57.6,61.3,55.7,48.6,92,60,31,29.88,29.77,8,2,8,0.00
2012-6-28,88.7,70.4,59.2,63.1,58.5,51.4,95,69,32,29.98,29.88,8,2,8,0.00
2012-6-29,87.8,71.0,60.8,63.1,58.0,49.1,93,67,34,29.99,29.88,8,2,8,0.00
2012-6-30,86.5,70.2,59.7,61.9,58.4,54.7,92,69,37,29.93,29.81,8,2,8,0.00
2012-7-1,82.8,69.8,61.7,61.3,59.5,57.6,93,71,47,29.87,29.76,8,2,8,0.00
2012-7-2,74.8,67.6,62.6,62.4,60.7,58.8,89,79,60,29.86,29.79,9,3,9,0.00
2012-7-3,74.5,66.3,62.6,60.4,58.7,57.4,87,77,59,29.90,29.82,8,3,8,0.00
2012-7-4,72.3,65.3,61.9,60.4,58.7,57.4,90,80,62,29.92,29.85,8,2,8,0.00
2012-7-5,75.7,66.9,62.8,61.0,59.2,58.3,86,77,58,29.96,29.89,9,2,9,0.00
2012-7-6,84.9,69.5,60.8,60.1,58.4,56.8,88,70,41,29.99,29.89,8,2,8,0.00
2012-7-7,84.0,67.8,59.7,60.3,57.8,55.0,92,73,40,29.99,29.90,8,2,8,0.00
2012-7-8,86.4,69.8,58.6,59.0,56.6,52.3,91,67,32,29.98,29.88,9,2,9,0.00
2012-7-9,90.7,73.3,60.3,63.1,57.6,53.1,94,62,29,29.92,29.80,8,2,8,0.00
2012-7-10,92.7,74.5,62.4,63.5,60.0,54.5,92,65,29,29.86,29.73,8,2,8,0.00
2012-7-11,91.2,73.6,62.1,64.0,60.9,57.7,93,68,37,29.85,29.73,8,2,8,0.00
2012-7-12,79.7,69.9,63.7,65.1,63.1,61.2,93,80,60,29.84,29.73,8,2,8,0.05
2012-7-13,102.6,73.4,66.2,68.5,64.4,60.3,94,76,40,29.89,29.77,8,2,8,0.01
2012-7-14,82.2,69.6,63.1,65.8,62.7,59.5,96,80,51,29.92,29.81,7,2,7,0.00
2012-7-15,75.0,67.4,62.2,60.3,58.1,56.5,88,73,56,29.93,29.84,10,3,10,0.00
2012-7-16,75.7,67.7,62.4,57.6,56.1,54.1,83,67,50,29.94,29.88,9,3,9,0.00
2012-7-17,79.3,69.2,63.1,58.5,56.4,54.1,84,65,43,29.98,29.89,8,3,8,0.00
2012-7-18,87.6,73.0,59.9,62.1,58.3,53.1,90,63,37,29.95,29.82,8,2,8,0.00
2012-7-19,94.1,75.1,66.2,62.6,59.9,49.3,83,62,22,29.92,29.83,8,2,8,0.00
2012-7-20,92.3,76.2,65.8,68.9,61.6,53.8,96,65,31,29.95,29.85,11,2,11,0.00
2012-7-21,90.7,75.0,64.2,64.8,61.4,58.8,90,65,38,29.94,29.79,8,2,8,0.00
2012-7-22,85.6,71.2,63.7,63.9,62.0,60.3,92,74,45,29.94,29.83,8,2,8,0.00
2012-7-23,86.2,70.5,62.6,63.7,61.5,58.3,92,75,44,29.96,29.86,8,2,8,0.00
2012-7-24,85.8,69.0,61.7,60.8,59.0,56.5,88,73,38,29.99,29.86,8,2,8,0.00
2012-7-25,84.9,68.3,59.7,59.9,57.9,55.4,91,72,39,30.00,29.88,10,2,10,0.00
2012-7-26,85.5,69.3,60.1,58.5,57.2,54.5,90,68,36,29.99,29.88,9,2,9,0.00
2012-7-27,85.8,68.4,60.3,58.8,57.1,54.1,88,70,36,30.00,29.88,8,2,8,0.00
2012-7-28,88.3,69.6,56.7,60.8,57.6,54.3,95,69,35,29.98,29.87,8,2,8,0.00
2012-7-29,85.3,69.2,59.5,61.7,59.2,57.0,95,72,42,29.97,29.83,8,2,8,0.00
2012-7-30,79.0,69.5,62.6,63.0,61.0,59.4,93,76,53,29.95,29.86,9,2,9,0.00
2012-7-31,78.8,70.8,62.6,64.0,62.0,60.3,92,75,58,30.00,29.91,9,2,9,0.00
2012-8-1,87.1,73.4,63.3,64.9,60.5,51.1,93,68,34,30.03,29.90,7,2,7,0.00
2012-8-11,87.6,80.5,73.4,68.5,66.4,63.5,80,63,46,29.76,29.69,8,3,8,0.00
2012-8-12,101.1,83.3,70.9,70.0,62.1,33.6,84,55,11,29.78,29.68,10,2,10,0.00
2012-8-13,96.6,80.7,70.0,70.2,64.3,57.9,88,60,34,29.78,29.69,8,2,8,0.00
2012-8-14,96.4,80.0,69.1,68.5,63.2,56.8,87,60,31,29.79,29.68,8,2,8,0.00
2012-8-15,85.8,75.7,66.2,68.5,63.4,58.8,91,67,44,29.83,29.73,9,2,9,0.00
2012-8-16,98.1,77.6,66.2,66.0,60.3,49.3,89,59,26,29.85,29.75,9,1,9,0.00
2012-8-17,96.4,80.3,69.1,67.6,59.8,41.2,90,56,15,29.86,29.75,7,2,7,0.00
2012-8-18,96.3,80.7,69.4,70.7,62.4,50.7,92,57,26,29.87,29.74,8,2,8,0.00
2012-8-19,95.4,80.4,70.5,71.4,65.0,55.9,93,64,31,29.83,29.73,8,2,8,0.00
2012-8-20,86.9,76.8,69.4,71.4,67.2,62.2,96,74,47,29.86,29.78,8,2,8,0.00
2012-8-21,81.9,74.3,68.9,68.9,66.9,64.9,93,78,60,29.88,29.79,9,3,9,0.00
2012-8-22,81.9,74.0,68.7,67.8,65.9,64.6,88,76,58,29.89,29.81,11,2,11,0.00
2012-8-23,87.3,74.5,69.4,68.4,66.0,64.6,89,76,50,29.91,29.80,8,2,8,0.00
2012-8-24,82.0,72.3,66.7,68.4,64.9,55.0,90,78,57,29.90,29.79,8,2,8,0.00
2012-8-25,80.1,71.1,64.8,64.4,62.5,60.3,89,75,54,29.87,29.78,9,2,9,0.00
2012-8-26,89.4,74.0,64.2,62.8,60.2,57.0,88,65,34,29.93,29.82,8,2,8,0.00
2012-8-27,98.1,76.7,60.4,68.0,58.3,46.2,98,60,19,29.94,29.82,9,2,9,0.00
2012-8-28,98.6,80.9,65.1,66.0,57.6,38.8,85,51,14,29.88,29.75,8,2,8,0.00
2012-8-29,85.5,75.4,69.1,71.1,68.0,61.3,96,79,52,29.81,29.71,11,3,11,0.00
2012-8-30,90.9,77.8,68.7,73.4,65.3,46.2,98,69,26,29.79,29.71,8,2,8,0.00
2012-8-31,94.1,77.9,66.2,66.7,61.7,49.1,87,61,24,29.85,29.77,8,2,8,0.00
2012-9-1,95.7,76.6,62.2,66.4,57.8,43.3,93,57,18,29.91,29.82,8,2,8,0.00
2012-9-2,95.5,75.3,59.9,66.6,57.9,44.8,95,61,22,29.90,29.80,8,2,8,0.00
2012-9-3,95.0,75.9,62.2,66.6,60.8,54.7,93,64,29,29.94,29.83,8,2,8,0.00
2012-9-4,97.9,78.5,65.7,95.0,58.9,29.1,89,58,10,29.96,29.83,7,2,7,0.00
2012-9-5,90.9,77.1,70.5,66.7,59.4,37.0,82,58,20,29.94,29.84,9,1,9,0.01
2012-9-6,93.2,77.5,67.6,67.8,61.1,48.4,92,61,22,29.94,29.85,8,2,8,0.00
2012-9-7,88.2,75.8,68.2,69.3,64.8,61.5,90,71,43,29.99,29.91,8,1,8,0.00
2012-10-30,103.5,73.4,55.6,60.8,53.3,38.7,88,57,12,30.07,29.97,3,0,3,0.00
2012-10-31,96.6,65.5,54.1,59.5,55.7,50.7,93,75,24,30.09,29.98,3,0,3,0.00
2012-11-1,90.3,64.4,54.1,59.9,54.7,50.9,93,74,30,30.06,29.97,3,0,3,0.00
2012-11-2,93.9,66.0,52.5,59.0,54.2,50.0,93,71,25,30.04,29.94,4,0,4,0.00
2012-11-3,102.0,66.9,50.5,63.7,55.0,49.1,96,72,22,30.07,29.98,2,0,2,0.00
2012-11-4,120.2,72.5,51.1,99.9,55.7,23.4,99,54,10,30.10,30.00,2,0,2,0.00
2012-11-5,118.8,73.4,54.0,99.9,50.9,30.7,71,44,10,30.09,29.98,3,0,3,0.00
2012-11-6,101.3,68.4,52.9,65.7,55.7,40.1,95,70,13,30.11,30.01,3,0,3,0.00
2012-11-7,99.0,68.6,57.6,62.6,58.1,53.6,91,74,24,30.10,29.81,4,0,4,0.00
2012-11-8,77.7,64.5,59.9,63.9,57.2,51.6,91,78,54,30.08,29.76,4,0,4,0.00
2012-11-9,88.3,62.9,51.4,52.0,44.7,25.9,85,56,13,29.97,29.89,6,1,6,0.00
2012-11-10,87.3,57.3,42.8,87.1,37.4,20.3,89,53,10,30.18,29.96,20,3,20,0.19
2012-11-11,72.5,55.0,40.8,39.7,31.8,11.7,74,45,10,30.32,30.17,12,3,12,0.00
2012-11-12,79.5,59.1,43.5,79.5,43.0,10.0,73,33,13,30.28,30.11,15,3,15,0.00
2012-11-13,90.0,60.8,41.5,89.8,39.4,14.0,78,42,10,30.14,29.96,11,2,11,0.00
2012-11-14,78.8,59.5,45.3,59.2,48.4,37.6,99,72,24,30.09,30.00,148,2,148,0.00
2012-11-15,72.0,60.1,52.2,59.9,55.5,46.8,99,87,48,30.14,30.03,10,2,10,0.01
2012-11-16,76.3,63.4,55.9,60.1,55.6,44.4,99,78,34,30.14,30.04,13,3,13,0.01
2012-11-17,74.5,63.7,57.6,63.3,60.5,57.2,99,90,61,30.13,29.86,15,4,15,0.06
2012-11-18,75.0,61.9,53.4,66.0,56.6,52.5,99,85,54,30.21,30.09,15,2,15,0.00
2012-11-19,76.6,59.7,48.7,57.7,53.8,48.4,99,83,46,30.28,30.18,13,2,13,0.00
2012-11-20,78.3,59.6,47.1,58.1,52.5,46.9,99,80,40,30.19,29.90,12,2,12,0.00
2012-11-21,71.1,59.0,51.6,59.4,55.9,51.1,99,91,64,30.15,30.04,11,3,11,0.00
2012-11-22,75.4,59.1,52.0,59.7,55.2,51.4,99,89,56,30.15,30.06,11,2,11,0.00
2012-11-23,73.4,58.4,49.8,65.3,55.7,49.5,99,92,58,30.19,30.07,12,2,12,0.01
2012-11-24,84.4,62.0,50.9,64.0,53.3,43.0,99,78,27,30.12,29.94,10,2,10,0.01
2012-11-25,67.3,60.0,55.8,61.0,57.5,55.4,99,92,72,30.01,29.90,11,3,11,0.00
2012-11-26,74.5,59.9,50.2,57.0,54.1,49.8,99,82,49,30.14,29.93,12,3,12,0.00
2012-11-27,74.3,57.7,47.7,57.7,53.3,47.5,99,87,54,30.20,30.07,15,2,15,0.00
2012-11-28,71.2,60.8,53.6,57.9,55.8,52.5,99,84,58,30.23,30.12,12,3,12,0.00
2012-11-29,64.6,60.7,57.4,63.5,60.2,57.0,99,99,92,30.26,30.16,8,2,8,0.19
2012-11-30,65.1,62.7,58.3,64.6,62.3,57.9,99,99,99,30.17,30.06,11,3,11,0.28
2012-12-1,70.0,61.7,53.6,66.9,60.3,53.2,99,95,79,30.21,30.11,10,3,10,0.01
2012-12-2,74.7,63.1,61.2,63.7,60.9,58.3,99,93,60,30.18,30.09,11,3,11,0.06
2012-12-3,71.4,61.8,54.3,65.8,60.8,54.0,99,97,79,30.22,30.12,11,3,11,0.41
2012-12-4,76.1,61.3,53.4,64.4,57.8,53.1,99,90,56,30.27,30.16,11,2,11,0.00
2012-12-5,82.0,58.1,51.1,66.7,56.5,50.7,99,95,60,30.18,29.87,10,2,10,0.01
2012-12-6,70.7,61.0,53.2,60.1,57.8,52.9,99,90,64,30.06,29.90,12,2,12,0.00
2012-12-7,66.6,58.4,50.9,59.5,56.5,50.5,99,94,76,30.01,29.93,8,2,8,0.01
2012-12-8,70.3,58.2,50.2,59.7,55.6,49.8,99,92,65,30.02,29.70,8,2,8,0.00
2012-12-9,72.3,59.7,49.6,57.9,55.2,49.1,99,86,57,30.15,29.99,11,2,11,0.00
2012-12-10,82.4,60.0,45.7,59.9,48.1,22.8,99,74,13,30.17,30.05,9,2,9,0.01
2012-12-11,94.1,57.8,44.2,59.2,52.6,42.3,99,85,52,30.09,29.71,11,2,11,0.00
2012-12-12,66.6,58.8,54.7,57.0,53.3,49.8,99,83,58,30.00,29.86,13,3,13,0.08
2012-12-13,72.3,56.2,48.6,60.6,49.8,43.3,99,81,50,29.87,29.75,15,3,15,0.19
2012-12-14,92.7,52.2,41.4,51.6,44.1,38.7,99,77,45,30.04,29.76,18,4,18,0.06
2012-12-15,66.4,55.6,44.4,50.5,43.1,31.5,99,67,28,30.13,29.99,12,3,12,0.01
2012-12-16,75.0,55.7,53.6,54.7,49.6,42.6,99,81,62,30.20,29.81,11,3,11,0.01
2012-12-17,70.5,59.0,53.6,59.4,54.3,52.0,99,85,59,30.19,30.02,10,2,10,0.00
2012-12-18,64.8,57.4,49.5,60.6,44.2,21.2,99,66,28,30.06,29.83,23,7,23,0.21
2012-12-19,65.8,51.4,37.8,38.3,26.1,8.6,73,40,13,30.29,30.05,23,4,23,0.00
2012-12-20,75.6,53.3,37.4,75.6,36.2,14.4,77,40,12,30.27,30.09,11,2,11,0.00
2012-12-21,73.6,50.8,35.8,47.8,37.1,25.7,96,64,18,30.16,29.87,11,2,11,0.00
2012-12-22,70.5,53.2,38.5,53.4,46.0,38.3,99,79,39,30.22,30.09,12,3,12,0.00
2012-12-23,68.2,57.7,50.5,55.9,53.7,50.2,99,87,61,30.25,30.14,13,3,13,0.00
2012-12-24,69.1,57.8,48.9,63.0,55.2,48.7,99,92,71,30.15,29.90,15,3,15,0.64
2012-12-25,67.5,54.7,47.7,52.9,49.7,42.4,99,86,45,30.12,30.00,9,1,9,0.01
2012-12-26,64.8,55.5,45.9,55.2,49.1,43.3,99,81,49,30.04,29.94,16,5,16,0.08
2012-12-27,67.3,53.0,40.1,49.6,39.6,28.6,99,66,24,30.13,29.96,16,3,16,0.00
2012-12-28,92.7,52.9,39.4,44.2,37.4,21.9,93,63,18,30.20,29.80,11,2,11,0.00
2012-12-29,58.1,47.5,41.2,50.4,42.6,35.1,99,84,59,30.11,29.99,13,3,13,0.15
2012-12-30,77.7,46.8,36.7,48.9,41.7,36.5,99,85,43,30.10,29.89,13,2,13,0.02
2012-12-31,72.3,48.1,34.7,47.1,41.6,34.3,99,81,46,30.27,29.88,11,2,11,0.01
2013-1-1,63.9,50.6,41.2,44.8,37.8,12.7,96,67,20,30.27,30.11,10,2,10,0.00